sensor_id;sensor_type;location;lat;lon;timestamp;P1;P2;P0
67892;PMS7003;54688;52.376;16.744;2023-05-24T00:02:40;22;20;
67892;PMS7003;54688;52.376;16.744;2023-05-24T00:05:43;20;20;
67892;PMS7003;54688;52.376;16.744;2023-05-24T00:08:45;24;24;
67892;PMS7003;54688;52.376;16.744;2023-05-24T00:11:47;22;21;
67892;PMS7003;54688;52.376;16.744;2023-05-24T00:14:48;22;22;
67892;PMS7003;54688;52.376;16.744;2023-05-24T00:17:50;26;20;
67892;PMS7003;54688;52.376;16.744;2023-05-24T00:20:52;21;19;
67892;PMS7003;54688;52.376;16.744;2023-05-24T00:23:54;22;21;
67892;PMS7003;54688;52.376;16.744;2023-05-24T00:26:56;21;20;
67892;PMS7003;54688;52.376;16.744;2023-05-24T00:29:58;23;20;
67892;PMS7003;54688;52.376;16.744;2023-05-24T00:33:00;27;23;
67892;PMS7003;54688;52.376;16.744;2023-05-24T00:36:03;25;24;
67892;PMS7003;54688;52.376;16.744;2023-05-24T00:39:05;20;18;
67892;PMS7003;54688;52.376;16.744;2023-05-24T00:42:07;25;23;
67892;PMS7003;54688;52.376;16.744;2023-05-24T00:45:09;22;21;
67892;PMS7003;54688;52.376;16.744;2023-05-24T00:48:12;27;26;
67892;PMS7003;54688;52.376;16.744;2023-05-24T00:51:14;31;22;
67892;PMS7003;54688;52.376;16.744;2023-05-24T00:54:17;23;20;
67892;PMS7003;54688;52.376;16.744;2023-05-24T00:57:19;23;21;
67892;PMS7003;54688;52.376;16.744;2023-05-24T01:00:22;28;25;
67892;PMS7003;54688;52.376;16.744;2023-05-24T01:03:24;24;22;
67892;PMS7003;54688;52.376;16.744;2023-05-24T01:06:26;21;19;
67892;PMS7003;54688;52.376;16.744;2023-05-24T01:09:33;32;26;
67892;PMS7003;54688;52.376;16.744;2023-05-24T01:12:48;22;22;
67892;PMS7003;54688;52.376;16.744;2023-05-24T01:15:58;25;22;
67892;PMS7003;54688;52.376;16.744;2023-05-24T01:19:06;25;25;
67892;PMS7003;54688;52.376;16.744;2023-05-24T01:22:17;27;24;
67892;PMS7003;54688;52.376;16.744;2023-05-24T01:25:52;23;20;
67892;PMS7003;54688;52.376;16.744;2023-05-24T01:28:55;22;22;
67892;PMS7003;54688;52.376;16.744;2023-05-24T01:31:56;23;18;
67892;PMS7003;54688;52.376;16.744;2023-05-24T01:34:58;24;21;
67892;PMS7003;54688;52.376;16.744;2023-05-24T01:38:00;22;21;
67892;PMS7003;54688;52.376;16.744;2023-05-24T01:44:26;16;16;
67892;PMS7003;54688;52.376;16.744;2023-05-24T01:47:40;15;13;
67892;PMS7003;54688;52.376;16.744;2023-05-24T01:50:45;20;20;
67892;PMS7003;54688;52.376;16.744;2023-05-24T01:53:49;15;14;
67892;PMS7003;54688;52.376;16.744;2023-05-24T01:56:53;16;13;
67892;PMS7003;54688;52.376;16.744;2023-05-24T01:59:57;16;15;
67892;PMS7003;54688;52.376;16.744;2023-05-24T02:03:00;16;14;
67892;PMS7003;54688;52.376;16.744;2023-05-24T02:06:03;14;12;
67892;PMS7003;54688;52.376;16.744;2023-05-24T02:09:05;15;14;
67892;PMS7003;54688;52.376;16.744;2023-05-24T02:12:09;14;13;
67892;PMS7003;54688;52.376;16.744;2023-05-24T02:15:11;17;14;
67892;PMS7003;54688;52.376;16.744;2023-05-24T02:18:13;13;12;
67892;PMS7003;54688;52.376;16.744;2023-05-24T02:21:14;12;12;
67892;PMS7003;54688;52.376;16.744;2023-05-24T02:24:16;12;11;
67892;PMS7003;54688;52.376;16.744;2023-05-24T02:27:19;12;10;
67892;PMS7003;54688;52.376;16.744;2023-05-24T02:30:21;13;8;
67892;PMS7003;54688;52.376;16.744;2023-05-24T02:33:22;7;7;
67892;PMS7003;54688;52.376;16.744;2023-05-24T02:36:24;9;8;
67892;PMS7003;54688;52.376;16.744;2023-05-24T02:39:26;10;9;
67892;PMS7003;54688;52.376;16.744;2023-05-24T02:42:28;12;8;
67892;PMS7003;54688;52.376;16.744;2023-05-24T02:45:30;8;8;
67892;PMS7003;54688;52.376;16.744;2023-05-24T02:48:32;9;8;
67892;PMS7003;54688;52.376;16.744;2023-05-24T02:51:34;9;8;
67892;PMS7003;54688;52.376;16.744;2023-05-24T02:54:36;13;10;
67892;PMS7003;54688;52.376;16.744;2023-05-24T02:57:38;10;9;
67892;PMS7003;54688;52.376;16.744;2023-05-24T03:00:40;11;9;
67892;PMS7003;54688;52.376;16.744;2023-05-24T03:03:42;9;9;
67892;PMS7003;54688;52.376;16.744;2023-05-24T03:06:44;10;9;
67892;PMS7003;54688;52.376;16.744;2023-05-24T03:09:46;7;7;
67892;PMS7003;54688;52.376;16.744;2023-05-24T03:12:48;10;9;
67892;PMS7003;54688;52.376;16.744;2023-05-24T03:15:50;13;7;
67892;PMS7003;54688;52.376;16.744;2023-05-24T03:18:51;7;5;
67892;PMS7003;54688;52.376;16.744;2023-05-24T03:21:53;12;10;
67892;PMS7003;54688;52.376;16.744;2023-05-24T03:24:55;9;7;
67892;PMS7003;54688;52.376;16.744;2023-05-24T03:27:57;13;9;
67892;PMS7003;54688;52.376;16.744;2023-05-24T03:30:59;12;10;
67892;PMS7003;54688;52.376;16.744;2023-05-24T03:34:01;12;12;
67892;PMS7003;54688;52.376;16.744;2023-05-24T03:37:03;15;10;
67892;PMS7003;54688;52.376;16.744;2023-05-24T03:40:07;13;11;
67892;PMS7003;54688;52.376;16.744;2023-05-24T03:43:08;11;9;
67892;PMS7003;54688;52.376;16.744;2023-05-24T03:46:11;13;12;
67892;PMS7003;54688;52.376;16.744;2023-05-24T03:49:12;12;8;
67892;PMS7003;54688;52.376;16.744;2023-05-24T03:52:14;12;9;
67892;PMS7003;54688;52.376;16.744;2023-05-24T03:55:16;10;7;
67892;PMS7003;54688;52.376;16.744;2023-05-24T03:58:18;11;7;
67892;PMS7003;54688;52.376;16.744;2023-05-24T04:01:20;9;7;
67892;PMS7003;54688;52.376;16.744;2023-05-24T04:04:22;7;6;
67892;PMS7003;54688;52.376;16.744;2023-05-24T04:07:24;9;6;
67892;PMS7003;54688;52.376;16.744;2023-05-24T04:10:26;7;6;
67892;PMS7003;54688;52.376;16.744;2023-05-24T04:13:28;6;6;
67892;PMS7003;54688;52.376;16.744;2023-05-24T04:16:30;9;6;
67892;PMS7003;54688;52.376;16.744;2023-05-24T04:19:32;5;5;
67892;PMS7003;54688;52.376;16.744;2023-05-24T04:22:34;6;4;
67892;PMS7003;54688;52.376;16.744;2023-05-24T04:25:36;8;6;
67892;PMS7003;54688;52.376;16.744;2023-05-24T04:28:38;5;5;
67892;PMS7003;54688;52.376;16.744;2023-05-24T04:31:40;11;7;
67892;PMS7003;54688;52.376;16.744;2023-05-24T04:34:43;6;6;
67892;PMS7003;54688;52.376;16.744;2023-05-24T04:37:45;12;9;
67892;PMS7003;54688;52.376;16.744;2023-05-24T04:40:47;6;6;
67892;PMS7003;54688;52.376;16.744;2023-05-24T04:43:49;12;8;
67892;PMS7003;54688;52.376;16.744;2023-05-24T04:46:51;9;7;
67892;PMS7003;54688;52.376;16.744;2023-05-24T04:49:53;9;6;
67892;PMS7003;54688;52.376;16.744;2023-05-24T04:52:55;6;4;
67892;PMS7003;54688;52.376;16.744;2023-05-24T04:55:57;6;6;
67892;PMS7003;54688;52.376;16.744;2023-05-24T04:58:58;7;5;
67892;PMS7003;54688;52.376;16.744;2023-05-24T05:02:00;7;5;
67892;PMS7003;54688;52.376;16.744;2023-05-24T05:05:03;3;3;
67892;PMS7003;54688;52.376;16.744;2023-05-24T05:08:05;3;3;
67892;PMS7003;54688;52.376;16.744;2023-05-24T05:11:07;2;2;
67892;PMS7003;54688;52.376;16.744;2023-05-24T05:14:08;1;1;
67892;PMS7003;54688;52.376;16.744;2023-05-24T05:17:10;2;2;
67892;PMS7003;54688;52.376;16.744;2023-05-24T05:20:12;1;1;
67892;PMS7003;54688;52.376;16.744;2023-05-24T05:23:14;2;1;
67892;PMS7003;54688;52.376;16.744;2023-05-24T05:26:16;1;1;
67892;PMS7003;54688;52.376;16.744;2023-05-24T05:29:18;1;1;
67892;PMS7003;54688;52.376;16.744;2023-05-24T05:32:20;1;1;
67892;PMS7003;54688;52.376;16.744;2023-05-24T05:35:22;0;0;
67892;PMS7003;54688;52.376;16.744;2023-05-24T05:38:24;1;1;
67892;PMS7003;54688;52.376;16.744;2023-05-24T05:41:25;0;0;
67892;PMS7003;54688;52.376;16.744;2023-05-24T05:44:27;0;0;
67892;PMS7003;54688;52.376;16.744;2023-05-24T05:47:29;1;1;
67892;PMS7003;54688;52.376;16.744;2023-05-24T05:50:31;0;0;
67892;PMS7003;54688;52.376;16.744;2023-05-24T05:53:33;0;0;
67892;PMS7003;54688;52.376;16.744;2023-05-24T05:56:34;1;1;
67892;PMS7003;54688;52.376;16.744;2023-05-24T05:59:36;0;0;
67892;PMS7003;54688;52.376;16.744;2023-05-24T06:02:38;1;1;
67892;PMS7003;54688;52.376;16.744;2023-05-24T06:05:40;1;1;
67892;PMS7003;54688;52.376;16.744;2023-05-24T06:08:42;1;1;
67892;PMS7003;54688;52.376;16.744;2023-05-24T06:11:44;1;1;
67892;PMS7003;54688;52.376;16.744;2023-05-24T06:14:46;5;0;
67892;PMS7003;54688;52.376;16.744;2023-05-24T06:17:48;2;1;
67892;PMS7003;54688;52.376;16.744;2023-05-24T06:20:50;3;2;
67892;PMS7003;54688;52.376;16.744;2023-05-24T06:23:51;3;0;
67892;PMS7003;54688;52.376;16.744;2023-05-24T06:26:53;1;1;
67892;PMS7003;54688;52.376;16.744;2023-05-24T06:29:57;3;1;
67892;PMS7003;54688;52.376;16.744;2023-05-24T06:32:58;2;2;
67892;PMS7003;54688;52.376;16.744;2023-05-24T06:36:00;2;1;
67892;PMS7003;54688;52.376;16.744;2023-05-24T06:39:02;2;2;
67892;PMS7003;54688;52.376;16.744;2023-05-24T06:42:04;1;1;
67892;PMS7003;54688;52.376;16.744;2023-05-24T06:45:07;2;2;
67892;PMS7003;54688;52.376;16.744;2023-05-24T06:48:09;1;1;
67892;PMS7003;54688;52.376;16.744;2023-05-24T06:51:12;1;1;
67892;PMS7003;54688;52.376;16.744;2023-05-24T06:54:14;2;2;
67892;PMS7003;54688;52.376;16.744;2023-05-24T06:57:15;4;3;
67892;PMS7003;54688;52.376;16.744;2023-05-24T07:00:18;2;2;
67892;PMS7003;54688;52.376;16.744;2023-05-24T07:03:20;4;3;
67892;PMS7003;54688;52.376;16.744;2023-05-24T07:06:22;4;4;
67892;PMS7003;54688;52.376;16.744;2023-05-24T07:09:24;3;3;
67892;PMS7003;54688;52.376;16.744;2023-05-24T07:12:25;4;4;
67892;PMS7003;54688;52.376;16.744;2023-05-24T07:18:26;4;3;
67892;PMS7003;54688;52.376;16.744;2023-05-24T07:21:28;7;4;
67892;PMS7003;54688;52.376;16.744;2023-05-24T07:24:30;5;5;
67892;PMS7003;54688;52.376;16.744;2023-05-24T07:27:31;7;5;
67892;PMS7003;54688;52.376;16.744;2023-05-24T07:33:34;4;4;
67892;PMS7003;54688;52.376;16.744;2023-05-24T07:36:37;6;5;
67892;PMS7003;54688;52.376;16.744;2023-05-24T07:39:38;6;5;
67892;PMS7003;54688;52.376;16.744;2023-05-24T07:42:40;5;5;
67892;PMS7003;54688;52.376;16.744;2023-05-24T07:45:42;10;6;
67892;PMS7003;54688;52.376;16.744;2023-05-24T07:48:44;5;3;
67892;PMS7003;54688;52.376;16.744;2023-05-24T07:51:46;4;4;
67892;PMS7003;54688;52.376;16.744;2023-05-24T07:54:47;5;5;
67892;PMS7003;54688;52.376;16.744;2023-05-24T08:00:50;6;6;
67892;PMS7003;54688;52.376;16.744;2023-05-24T08:03:53;7;6;
67892;PMS7003;54688;52.376;16.744;2023-05-24T08:06:55;8;7;
67892;PMS7003;54688;52.376;16.744;2023-05-24T08:09:57;6;5;
67892;PMS7003;54688;52.376;16.744;2023-05-24T08:12:59;10;6;
67892;PMS7003;54688;52.376;16.744;2023-05-24T08:16:00;10;5;
67892;PMS7003;54688;52.376;16.744;2023-05-24T08:19:02;8;8;
67892;PMS7003;54688;52.376;16.744;2023-05-24T08:22:05;10;6;
67892;PMS7003;54688;52.376;16.744;2023-05-24T08:25:07;9;7;
67892;PMS7003;54688;52.376;16.744;2023-05-24T08:28:10;10;7;
67892;PMS7003;54688;52.376;16.744;2023-05-24T08:31:12;9;7;
67892;PMS7003;54688;52.376;16.744;2023-05-24T08:34:14;7;7;
67892;PMS7003;54688;52.376;16.744;2023-05-24T08:37:16;7;6;
67892;PMS7003;54688;52.376;16.744;2023-05-24T08:40:18;7;6;
67892;PMS7003;54688;52.376;16.744;2023-05-24T08:43:20;12;6;
67892;PMS7003;54688;52.376;16.744;2023-05-24T08:46:24;6;6;
67892;PMS7003;54688;52.376;16.744;2023-05-24T08:49:26;7;5;
67892;PMS7003;54688;52.376;16.744;2023-05-24T08:52:30;5;4;
67892;PMS7003;54688;52.376;16.744;2023-05-24T08:55:33;10;7;
67892;PMS7003;54688;52.376;16.744;2023-05-24T08:58:37;7;7;
67892;PMS7003;54688;52.376;16.744;2023-05-24T09:04:38;8;7;
67892;PMS7003;54688;52.376;16.744;2023-05-24T09:07:44;10;7;
67892;PMS7003;54688;52.376;16.744;2023-05-24T09:10:46;9;8;
67892;PMS7003;54688;52.376;16.744;2023-05-24T09:13:48;6;6;
67892;PMS7003;54688;52.376;16.744;2023-05-24T09:16:50;8;6;
67892;PMS7003;54688;52.376;16.744;2023-05-24T09:19:52;9;7;
67892;PMS7003;54688;52.376;16.744;2023-05-24T09:22:55;11;6;
67892;PMS7003;54688;52.376;16.744;2023-05-24T09:25:57;8;8;
67892;PMS7003;54688;52.376;16.744;2023-05-24T09:28:59;10;8;
67892;PMS7003;54688;52.376;16.744;2023-05-24T09:32:02;7;7;
67892;PMS7003;54688;52.376;16.744;2023-05-24T09:35:07;13;9;
67892;PMS7003;54688;52.376;16.744;2023-05-24T09:38:15;14;9;
67892;PMS7003;54688;52.376;16.744;2023-05-24T09:41:19;9;8;
67892;PMS7003;54688;52.376;16.744;2023-05-24T09:44:23;7;7;
67892;PMS7003;54688;52.376;16.744;2023-05-24T09:47:27;10;8;
67892;PMS7003;54688;52.376;16.744;2023-05-24T09:50:30;10;10;
67892;PMS7003;54688;52.376;16.744;2023-05-24T09:53:32;15;9;
67892;PMS7003;54688;52.376;16.744;2023-05-24T09:56:34;8;8;
67892;PMS7003;54688;52.376;16.744;2023-05-24T09:59:38;9;8;
67892;PMS7003;54688;52.376;16.744;2023-05-24T10:02:41;11;10;
67892;PMS7003;54688;52.376;16.744;2023-05-24T10:05:44;13;9;
67892;PMS7003;54688;52.376;16.744;2023-05-24T10:08:46;10;7;
67892;PMS7003;54688;52.376;16.744;2023-05-24T10:11:49;8;8;
67892;PMS7003;54688;52.376;16.744;2023-05-24T10:14:51;11;10;
67892;PMS7003;54688;52.376;16.744;2023-05-24T10:17:55;10;8;
67892;PMS7003;54688;52.376;16.744;2023-05-24T10:20:58;12;10;
67892;PMS7003;54688;52.376;16.744;2023-05-24T10:24:01;10;9;
67892;PMS7003;54688;52.376;16.744;2023-05-24T10:27:08;11;9;
67892;PMS7003;54688;52.376;16.744;2023-05-24T10:30:14;13;9;
67892;PMS7003;54688;52.376;16.744;2023-05-24T10:33:20;11;10;
67892;PMS7003;54688;52.376;16.744;2023-05-24T10:36:24;15;10;
67892;PMS7003;54688;52.376;16.744;2023-05-24T10:39:26;8;8;
67892;PMS7003;54688;52.376;16.744;2023-05-24T10:42:29;13;10;
67892;PMS7003;54688;52.376;16.744;2023-05-24T10:45:33;8;6;
67892;PMS7003;54688;52.376;16.744;2023-05-24T10:48:38;13;10;
67892;PMS7003;54688;52.376;16.744;2023-05-24T10:51:40;11;11;
67892;PMS7003;54688;52.376;16.744;2023-05-24T10:55:00;13;8;
67892;PMS7003;54688;52.376;16.744;2023-05-24T10:58:04;11;8;
67892;PMS7003;54688;52.376;16.744;2023-05-24T11:04:07;13;12;
67892;PMS7003;54688;52.376;16.744;2023-05-24T11:07:10;13;11;
67892;PMS7003;54688;52.376;16.744;2023-05-24T11:10:15;16;13;
67892;PMS7003;54688;52.376;16.744;2023-05-24T11:13:17;11;9;
67892;PMS7003;54688;52.376;16.744;2023-05-24T11:16:32;10;9;
67892;PMS7003;54688;52.376;16.744;2023-05-24T11:19:36;18;15;
67892;PMS7003;54688;52.376;16.744;2023-05-24T11:22:38;13;10;
67892;PMS7003;54688;52.376;16.744;2023-05-24T11:25:40;19;14;
67892;PMS7003;54688;52.376;16.744;2023-05-24T11:28:45;14;12;
67892;PMS7003;54688;52.376;16.744;2023-05-24T11:31:49;14;10;
67892;PMS7003;54688;52.376;16.744;2023-05-24T11:34:51;14;13;
67892;PMS7003;54688;52.376;16.744;2023-05-24T11:37:53;16;14;
67892;PMS7003;54688;52.376;16.744;2023-05-24T11:40:57;15;14;
67892;PMS7003;54688;52.376;16.744;2023-05-24T11:43:59;15;12;
67892;PMS7003;54688;52.376;16.744;2023-05-24T11:47:02;17;11;
67892;PMS7003;54688;52.376;16.744;2023-05-24T11:50:05;14;12;
67892;PMS7003;54688;52.376;16.744;2023-05-24T11:53:09;9;9;
67892;PMS7003;54688;52.376;16.744;2023-05-24T11:56:11;13;11;
67892;PMS7003;54688;52.376;16.744;2023-05-24T11:59:15;16;13;
67892;PMS7003;54688;52.376;16.744;2023-05-24T12:02:17;21;13;
67892;PMS7003;54688;52.376;16.744;2023-05-24T12:05:20;11;11;
67892;PMS7003;54688;52.376;16.744;2023-05-24T12:08:22;10;9;
67892;PMS7003;54688;52.376;16.744;2023-05-24T12:14:24;11;10;
67892;PMS7003;54688;52.376;16.744;2023-05-24T12:17:28;14;10;
67892;PMS7003;54688;52.376;16.744;2023-05-24T12:20:30;14;12;
67892;PMS7003;54688;52.376;16.744;2023-05-24T12:23:33;18;12;
67892;PMS7003;54688;52.376;16.744;2023-05-24T12:26:39;11;11;
67892;PMS7003;54688;52.376;16.744;2023-05-24T12:29:42;14;10;
67892;PMS7003;54688;52.376;16.744;2023-05-24T12:32:44;12;11;
67892;PMS7003;54688;52.376;16.744;2023-05-24T12:35:47;11;9;
67892;PMS7003;54688;52.376;16.744;2023-05-24T12:38:48;15;10;
67892;PMS7003;54688;52.376;16.744;2023-05-24T12:41:51;8;8;
67892;PMS7003;54688;52.376;16.744;2023-05-24T12:44:53;13;9;
67892;PMS7003;54688;52.376;16.744;2023-05-24T12:47:57;11;9;
67892;PMS7003;54688;52.376;16.744;2023-05-24T12:51:00;12;11;
67892;PMS7003;54688;52.376;16.744;2023-05-24T12:54:03;15;14;
67892;PMS7003;54688;52.376;16.744;2023-05-24T12:57:05;17;15;
67892;PMS7003;54688;52.376;16.744;2023-05-24T13:00:08;12;11;
67892;PMS7003;54688;52.376;16.744;2023-05-24T13:03:11;13;12;
67892;PMS7003;54688;52.376;16.744;2023-05-24T13:06:13;14;12;
67892;PMS7003;54688;52.376;16.744;2023-05-24T13:12:14;16;12;
67892;PMS7003;54688;52.376;16.744;2023-05-24T13:15:16;11;9;
67892;PMS7003;54688;52.376;16.744;2023-05-24T13:18:18;13;11;
67892;PMS7003;54688;52.376;16.744;2023-05-24T13:21:21;14;10;
67892;PMS7003;54688;52.376;16.744;2023-05-24T13:24:23;11;8;
67892;PMS7003;54688;52.376;16.744;2023-05-24T13:27:25;9;8;
67892;PMS7003;54688;52.376;16.744;2023-05-24T13:30:27;9;8;
67892;PMS7003;54688;52.376;16.744;2023-05-24T13:33:29;9;8;
67892;PMS7003;54688;52.376;16.744;2023-05-24T13:36:33;12;5;
67892;PMS7003;54688;52.376;16.744;2023-05-24T13:39:36;7;7;
67892;PMS7003;54688;52.376;16.744;2023-05-24T13:42:38;9;8;
67892;PMS7003;54688;52.376;16.744;2023-05-24T13:45:40;8;6;
67892;PMS7003;54688;52.376;16.744;2023-05-24T13:48:43;8;6;
67892;PMS7003;54688;52.376;16.744;2023-05-24T13:57:45;9;6;
67892;PMS7003;54688;52.376;16.744;2023-05-24T14:00:47;8;6;
67892;PMS7003;54688;52.376;16.744;2023-05-24T14:03:48;5;5;
67892;PMS7003;54688;52.376;16.744;2023-05-24T14:06:50;7;6;
67892;PMS7003;54688;52.376;16.744;2023-05-24T14:09:53;8;5;
67892;PMS7003;54688;52.376;16.744;2023-05-24T14:12:56;9;7;
67892;PMS7003;54688;52.376;16.744;2023-05-24T14:15:58;7;6;
67892;PMS7003;54688;52.376;16.744;2023-05-24T14:19:02;12;9;
67892;PMS7003;54688;52.376;16.744;2023-05-24T14:22:05;13;7;
67892;PMS7003;54688;52.376;16.744;2023-05-24T14:25:07;9;7;
67892;PMS7003;54688;52.376;16.744;2023-05-24T14:28:10;9;7;
67892;PMS7003;54688;52.376;16.744;2023-05-24T14:31:12;8;6;
67892;PMS7003;54688;52.376;16.744;2023-05-24T14:34:15;14;7;
67892;PMS7003;54688;52.376;16.744;2023-05-24T14:37:17;8;7;
67892;PMS7003;54688;52.376;16.744;2023-05-24T14:40:19;10;7;
67892;PMS7003;54688;52.376;16.744;2023-05-24T14:43:22;6;6;
67892;PMS7003;54688;52.376;16.744;2023-05-24T14:46:32;9;8;
67892;PMS7003;54688;52.376;16.744;2023-05-24T14:49:35;7;7;
67892;PMS7003;54688;52.376;16.744;2023-05-24T14:52:37;9;6;
67892;PMS7003;54688;52.376;16.744;2023-05-24T14:55:41;8;6;
67892;PMS7003;54688;52.376;16.744;2023-05-24T14:58:43;7;6;
67892;PMS7003;54688;52.376;16.744;2023-05-24T15:01:45;6;6;
67892;PMS7003;54688;52.376;16.744;2023-05-24T15:04:46;13;8;
67892;PMS7003;54688;52.376;16.744;2023-05-24T15:07:48;11;8;
67892;PMS7003;54688;52.376;16.744;2023-05-24T15:10:50;11;8;
67892;PMS7003;54688;52.376;16.744;2023-05-24T15:13:52;8;7;
67892;PMS7003;54688;52.376;16.744;2023-05-24T15:16:54;5;5;
67892;PMS7003;54688;52.376;16.744;2023-05-24T15:19:55;8;4;
67892;PMS7003;54688;52.376;16.744;2023-05-24T15:22:57;9;7;
67892;PMS7003;54688;52.376;16.744;2023-05-24T15:25:59;6;6;
67892;PMS7003;54688;52.376;16.744;2023-05-24T15:29:01;9;9;
67892;PMS7003;54688;52.376;16.744;2023-05-24T15:32:04;13;9;
67892;PMS7003;54688;52.376;16.744;2023-05-24T15:35:07;11;9;
67892;PMS7003;54688;52.376;16.744;2023-05-24T15:38:09;7;7;
67892;PMS7003;54688;52.376;16.744;2023-05-24T15:41:11;11;7;
67892;PMS7003;54688;52.376;16.744;2023-05-24T15:44:13;6;6;
67892;PMS7003;54688;52.376;16.744;2023-05-24T15:47:15;6;4;
67892;PMS7003;54688;52.376;16.744;2023-05-24T15:50:17;11;6;
67892;PMS7003;54688;52.376;16.744;2023-05-24T15:53:19;11;7;
67892;PMS7003;54688;52.376;16.744;2023-05-24T15:56:21;5;5;
67892;PMS7003;54688;52.376;16.744;2023-05-24T15:59:23;11;8;
67892;PMS7003;54688;52.376;16.744;2023-05-24T16:02:25;11;8;
67892;PMS7003;54688;52.376;16.744;2023-05-24T16:05:26;9;8;
67892;PMS7003;54688;52.376;16.744;2023-05-24T16:08:28;5;5;
67892;PMS7003;54688;52.376;16.744;2023-05-24T16:11:31;6;6;
67892;PMS7003;54688;52.376;16.744;2023-05-24T16:14:34;8;7;
67892;PMS7003;54688;52.376;16.744;2023-05-24T16:17:36;8;7;
67892;PMS7003;54688;52.376;16.744;2023-05-24T16:20:39;6;6;
67892;PMS7003;54688;52.376;16.744;2023-05-24T16:23:41;9;5;
67892;PMS7003;54688;52.376;16.744;2023-05-24T16:26:43;6;6;
67892;PMS7003;54688;52.376;16.744;2023-05-24T16:29:46;7;5;
67892;PMS7003;54688;52.376;16.744;2023-05-24T16:32:47;7;5;
67892;PMS7003;54688;52.376;16.744;2023-05-24T16:35:50;8;7;
67892;PMS7003;54688;52.376;16.744;2023-05-24T16:38:52;7;4;
67892;PMS7003;54688;52.376;16.744;2023-05-24T16:41:54;7;7;
67892;PMS7003;54688;52.376;16.744;2023-05-24T16:44:55;8;5;
67892;PMS7003;54688;52.376;16.744;2023-05-24T16:47:58;8;5;
67892;PMS7003;54688;52.376;16.744;2023-05-24T16:51:00;9;8;
67892;PMS7003;54688;52.376;16.744;2023-05-24T16:54:02;5;5;
67892;PMS7003;54688;52.376;16.744;2023-05-24T16:57:05;9;8;
67892;PMS7003;54688;52.376;16.744;2023-05-24T17:00:07;9;9;
67892;PMS7003;54688;52.376;16.744;2023-05-24T17:03:09;10;9;
67892;PMS7003;54688;52.376;16.744;2023-05-24T17:06:11;6;6;
67892;PMS7003;54688;52.376;16.744;2023-05-24T17:09:13;12;9;
67892;PMS7003;54688;52.376;16.744;2023-05-24T17:12:15;7;5;
67892;PMS7003;54688;52.376;16.744;2023-05-24T17:15:17;6;5;
67892;PMS7003;54688;52.376;16.744;2023-05-24T17:18:20;7;7;
67892;PMS7003;54688;52.376;16.744;2023-05-24T17:21:21;7;5;
67892;PMS7003;54688;52.376;16.744;2023-05-24T17:24:24;9;6;
67892;PMS7003;54688;52.376;16.744;2023-05-24T17:27:25;10;9;
67892;PMS7003;54688;52.376;16.744;2023-05-24T17:30:27;6;6;
67892;PMS7003;54688;52.376;16.744;2023-05-24T17:33:30;8;8;
67892;PMS7003;54688;52.376;16.744;2023-05-24T17:36:32;11;7;
67892;PMS7003;54688;52.376;16.744;2023-05-24T17:39:34;11;9;
67892;PMS7003;54688;52.376;16.744;2023-05-24T17:42:36;13;7;
67892;PMS7003;54688;52.376;16.744;2023-05-24T17:45:38;9;6;
67892;PMS7003;54688;52.376;16.744;2023-05-24T17:48:39;7;7;
67892;PMS7003;54688;52.376;16.744;2023-05-24T17:51:41;5;5;
67892;PMS7003;54688;52.376;16.744;2023-05-24T17:54:43;7;6;
67892;PMS7003;54688;52.376;16.744;2023-05-24T17:57:46;12;7;
67892;PMS7003;54688;52.376;16.744;2023-05-24T18:00:49;9;9;
67892;PMS7003;54688;52.376;16.744;2023-05-24T18:03:51;9;8;
67892;PMS7003;54688;52.376;16.744;2023-05-24T18:06:53;4;4;
67892;PMS7003;54688;52.376;16.744;2023-05-24T18:09:55;8;8;
67892;PMS7003;54688;52.376;16.744;2023-05-24T18:12:57;6;6;
67892;PMS7003;54688;52.376;16.744;2023-05-24T18:15:59;10;8;
67892;PMS7003;54688;52.376;16.744;2023-05-24T18:19:00;8;6;
67892;PMS7003;54688;52.376;16.744;2023-05-24T18:22:02;13;8;
67892;PMS7003;54688;52.376;16.744;2023-05-24T18:25:06;9;7;
67892;PMS7003;54688;52.376;16.744;2023-05-24T18:28:07;9;6;
67892;PMS7003;54688;52.376;16.744;2023-05-24T18:31:09;8;7;
67892;PMS7003;54688;52.376;16.744;2023-05-24T18:34:12;10;7;
67892;PMS7003;54688;52.376;16.744;2023-05-24T18:37:14;9;8;
67892;PMS7003;54688;52.376;16.744;2023-05-24T18:40:16;11;8;
67892;PMS7003;54688;52.376;16.744;2023-05-24T18:43:18;6;6;
67892;PMS7003;54688;52.376;16.744;2023-05-24T18:46:20;8;8;
67892;PMS7003;54688;52.376;16.744;2023-05-24T18:49:22;10;9;
67892;PMS7003;54688;52.376;16.744;2023-05-24T18:52:24;11;9;
67892;PMS7003;54688;52.376;16.744;2023-05-24T18:55:25;8;6;
67892;PMS7003;54688;52.376;16.744;2023-05-24T18:58:27;10;8;
67892;PMS7003;54688;52.376;16.744;2023-05-24T19:01:29;11;8;
67892;PMS7003;54688;52.376;16.744;2023-05-24T19:04:31;7;7;
67892;PMS7003;54688;52.376;16.744;2023-05-24T19:07:34;8;7;
67892;PMS7003;54688;52.376;16.744;2023-05-24T19:10:36;12;9;
67892;PMS7003;54688;52.376;16.744;2023-05-24T19:13:38;21;18;
67892;PMS7003;54688;52.376;16.744;2023-05-24T19:16:40;7;6;
67892;PMS7003;54688;52.376;16.744;2023-05-24T19:19:42;11;8;
67892;PMS7003;54688;52.376;16.744;2023-05-24T19:22:44;11;8;
67892;PMS7003;54688;52.376;16.744;2023-05-24T19:25:46;10;8;
67892;PMS7003;54688;52.376;16.744;2023-05-24T19:28:48;11;8;
67892;PMS7003;54688;52.376;16.744;2023-05-24T19:31:50;9;9;
67892;PMS7003;54688;52.376;16.744;2023-05-24T19:34:52;9;7;
67892;PMS7003;54688;52.376;16.744;2023-05-24T19:37:54;16;11;
67892;PMS7003;54688;52.376;16.744;2023-05-24T19:40:55;8;8;
67892;PMS7003;54688;52.376;16.744;2023-05-24T19:43:57;11;10;
67892;PMS7003;54688;52.376;16.744;2023-05-24T19:46:59;12;8;
67892;PMS7003;54688;52.376;16.744;2023-05-24T19:50:02;13;11;
67892;PMS7003;54688;52.376;16.744;2023-05-24T19:53:04;13;11;
67892;PMS7003;54688;52.376;16.744;2023-05-24T19:56:06;12;11;
67892;PMS7003;54688;52.376;16.744;2023-05-24T19:59:08;13;10;
67892;PMS7003;54688;52.376;16.744;2023-05-24T20:02:10;8;8;
67892;PMS7003;54688;52.376;16.744;2023-05-24T20:05:11;9;8;
67892;PMS7003;54688;52.376;16.744;2023-05-24T20:08:18;12;11;
67892;PMS7003;54688;52.376;16.744;2023-05-24T20:11:22;12;9;
67892;PMS7003;54688;52.376;16.744;2023-05-24T20:14:25;13;13;
67892;PMS7003;54688;52.376;16.744;2023-05-24T20:17:27;14;12;
67892;PMS7003;54688;52.376;16.744;2023-05-24T20:20:29;12;11;
67892;PMS7003;54688;52.376;16.744;2023-05-24T20:23:31;11;9;
67892;PMS7003;54688;52.376;16.744;2023-05-24T20:26:33;9;8;
67892;PMS7003;54688;52.376;16.744;2023-05-24T20:29:36;13;9;
67892;PMS7003;54688;52.376;16.744;2023-05-24T20:32:37;11;11;
67892;PMS7003;54688;52.376;16.744;2023-05-24T20:35:39;14;10;
67892;PMS7003;54688;52.376;16.744;2023-05-24T20:38:42;13;11;
67892;PMS7003;54688;52.376;16.744;2023-05-24T20:41:44;8;6;
67892;PMS7003;54688;52.376;16.744;2023-05-24T20:44:46;14;12;
67892;PMS7003;54688;52.376;16.744;2023-05-24T20:47:49;12;8;